Time;durP1;ratioP1;P1;durP2;ratioP2;P2;SDS_P1;SDS_P2;PMS_P1;PMS_P2;Temp;Humidity;BMP_temperature;BMP_pressure;BME280_temperature;BME280_humidity;BME280_pressure;Samples;Min_cycle;Max_cycle;Signal;HPM_P1;HPM_P2
2021/07/18 00:01:57;;;;;;;4.03;3.43;;;;;;;15.46;93.01;101056.66;5031668;28;20205;-75
2021/07/18 00:04:23;;;;;;;4.53;3.37;;;;;;;15.48;92.91;101070.69;5030993;28;20695;-75
2021/07/18 00:06:49;;;;;;;4.10;2.97;;;;;;;15.40;93.36;101073.53;5032275;28;20302;-75
2021/07/18 00:09:17;;;;;;;4.70;3.57;;;;;;;15.39;93.59;101070.94;5031813;28;20630;-75
2021/07/18 00:11:44;;;;;;;4.57;3.37;;;;;;;15.36;93.92;101071.88;5031947;28;20255;-75
2021/07/18 00:14:10;;;;;;;4.00;3.40;;;;;;;15.34;94.02;101064.94;5031730;28;20212;-76
2021/07/18 00:16:37;;;;;;;7.10;3.50;;;;;;;15.31;94.03;101071.16;5031536;28;20226;-75
2021/07/18 00:19:03;;;;;;;4.87;3.43;;;;;;;15.35;94.11;101071.94;5032281;28;20205;-75
2021/07/18 00:21:30;;;;;;;4.83;3.57;;;;;;;15.30;94.47;101077.28;5032014;28;20707;-76
2021/07/18 00:23:57;;;;;;;6.37;3.30;;;;;;;15.26;94.65;101062.50;5031480;28;20217;-75
2021/07/18 00:26:25;;;;;;;4.97;3.40;;;;;;;15.25;94.93;101060.81;5031932;28;20226;-75
2021/07/18 00:28:51;;;;;;;5.27;4.13;;;;;;;15.23;95.43;101067.88;5031845;28;20254;-76
2021/07/18 00:31:18;;;;;;;4.07;3.63;;;;;;;15.23;95.69;101066.09;5032066;28;20230;-75
2021/07/18 00:33:44;;;;;;;4.50;4.00;;;;;;;15.24;95.53;101070.47;5031743;28;20206;-76
2021/07/18 00:36:11;;;;;;;8.17;3.90;;;;;;;15.26;95.92;101073.91;5031888;28;20209;-75
2021/07/18 00:38:37;;;;;;;4.53;3.67;;;;;;;15.23;95.96;101068.72;5023594;28;20260;-74
2021/07/18 00:41:03;;;;;;;8.77;3.60;;;;;;;15.24;95.85;101075.72;5031677;28;20201;-75
2021/07/18 00:43:32;;;;;;;5.10;4.23;;;;;;;15.24;96.11;101080.09;5031208;28;20720;-75
2021/07/18 00:45:59;;;;;;;5.83;4.40;;;;;;;15.21;96.30;101080.22;5031719;28;20270;-76
2021/07/18 00:48:27;;;;;;;4.47;3.60;;;;;;;15.18;96.68;101075.03;5031795;28;20266;-74
2021/07/18 00:50:54;;;;;;;6.57;4.27;;;;;;;15.13;96.73;101077.78;5031680;28;20226;-76
2021/07/18 00:53:21;;;;;;;8.87;4.37;;;;;;;15.12;97.08;101075.19;5031059;28;20263;-75
2021/07/18 00:55:47;;;;;;;7.50;4.27;;;;;;;15.13;97.12;101072.53;5031543;28;20654;-75
2021/07/18 00:58:14;;;;;;;4.80;4.37;;;;;;;15.14;97.19;101070.75;5031391;28;20662;-75
2021/07/18 01:00:42;;;;;;;6.00;4.67;;;;;;;15.13;97.44;101079.56;5031861;28;20247;-75
2021/07/18 01:03:09;;;;;;;5.57;4.73;;;;;;;15.11;97.49;101081.38;5031302;28;20206;-75
2021/07/18 01:05:35;;;;;;;6.13;4.60;;;;;;;15.09;97.69;101074.38;5031384;28;20270;-76
2021/07/18 01:08:02;;;;;;;4.80;4.40;;;;;;;15.13;97.83;101076.94;5031234;28;20252;-76
2021/07/18 01:10:29;;;;;;;7.57;5.30;;;;;;;15.07;98.04;101081.44;5031164;28;20225;-75
2021/07/18 01:12:55;;;;;;;6.23;5.07;;;;;;;15.02;97.88;101083.31;5031222;28;20250;-75
2021/07/18 01:15:24;;;;;;;5.27;4.33;;;;;;;15.02;98.06;101074.56;5031600;28;20209;-75
2021/07/18 01:17:52;;;;;;;7.63;5.27;;;;;;;14.99;98.68;101072.91;5031357;28;20302;-75
2021/07/18 01:20:18;;;;;;;8.30;5.27;;;;;;;14.99;98.58;101067.66;5031478;28;20276;-76
2021/07/18 01:22:47;;;;;;;6.00;5.43;;;;;;;14.97;98.99;101064.19;5030977;28;20262;-75
2021/07/18 01:25:14;;;;;;;7.00;5.27;;;;;;;15.02;99.10;101066.69;5031316;28;20343;-76
2021/07/18 01:27:43;;;;;;;7.10;5.70;;;;;;;15.02;99.39;101067.53;5032772;28;20621;-75
2021/07/18 01:30:12;;;;;;;8.90;6.00;;;;;;;15.06;99.48;101066.59;5035365;28;20232;-75
2021/07/18 01:32:39;;;;;;;7.30;5.80;;;;;;;15.03;99.67;101063.16;5034872;28;20206;-75
2021/07/18 01:35:06;;;;;;;6.53;5.90;;;;;;;15.00;99.87;101068.50;5035115;28;20265;-75
2021/07/18 01:37:33;;;;;;;6.23;5.67;;;;;;;14.96;100.00;101064.22;5035305;28;20286;-75
2021/07/18 01:40:00;;;;;;;8.27;5.83;;;;;;;14.95;100.00;101059.91;5026917;28;20201;-75
2021/07/18 01:42:27;;;;;;;8.43;6.27;;;;;;;14.95;100.00;101052.88;5034814;28;20260;-76
2021/07/18 01:44:53;;;;;;;7.40;6.07;;;;;;;15.00;100.00;101064.09;5035079;28;20205;-75
2021/07/18 01:47:20;;;;;;;9.03;6.83;;;;;;;15.02;100.00;101070.19;5034755;28;20241;-75
2021/07/18 01:49:46;;;;;;;7.90;6.60;;;;;;;15.06;100.00;101076.22;5034786;28;20213;-74
2021/07/18 01:52:12;;;;;;;7.83;6.53;;;;;;;15.11;100.00;101076.13;5034795;28;20213;-75
2021/07/18 01:54:39;;;;;;;15.10;7.87;;;;;;;15.15;100.00;101081.25;5034612;28;20210;-75
2021/07/18 01:57:12;;;;;;;8.13;7.27;;;;;;;15.16;100.00;101085.56;5034842;28;20233;-75
2021/07/18 01:59:38;;;;;;;9.47;7.93;;;;;;;15.22;100.00;101084.53;5034818;28;20233;-74
2021/07/18 02:02:05;;;;;;;9.30;8.50;;;;;;;15.26;100.00;101087.06;5034347;28;20206;-75
2021/07/18 02:04:31;;;;;;;9.30;8.30;;;;;;;15.31;100.00;101096.59;5034281;28;20268;-75
2021/07/18 02:06:58;;;;;;;12.30;9.20;;;;;;;15.32;100.00;101093.03;5034682;28;20222;-75
2021/07/18 02:09:24;;;;;;;11.33;8.93;;;;;;;15.34;100.00;101089.50;5026196;28;20210;-75
2021/07/18 02:11:50;;;;;;;10.70;9.67;;;;;;;15.37;100.00;101092.00;5034059;28;20225;-75
2021/07/18 02:14:18;;;;;;;10.70;9.70;;;;;;;15.40;100.00;101093.69;5034162;28;20773;-75
2021/07/18 02:16:44;;;;;;;13.87;10.77;;;;;;;15.44;100.00;101098.84;5034592;28;20231;-74
2021/07/18 02:19:11;;;;;;;13.17;11.13;;;;;;;15.49;100.00;101098.69;5034495;28;20239;-75
2021/07/18 02:21:39;;;;;;;13.10;10.53;;;;;;;15.59;100.00;101110.69;5034406;28;20212;-75
2021/07/18 02:24:06;;;;;;;11.87;10.73;;;;;;;15.67;100.00;101113.94;5033709;28;20209;-75
2021/07/18 02:26:33;;;;;;;12.03;10.77;;;;;;;15.67;100.00;101126.25;5034216;28;20287;-75
2021/07/18 02:29:00;;;;;;;11.43;10.13;;;;;;;15.72;100.00;101128.72;5034056;28;20238;-75
2021/07/18 02:31:28;;;;;;;11.83;10.67;;;;;;;15.71;100.00;101130.50;5034225;28;20225;-75
2021/07/18 02:33:54;;;;;;;14.30;11.37;;;;;;;15.72;100.00;101127.00;5033865;28;20206;-75
2021/07/18 02:36:21;;;;;;;14.43;11.17;;;;;;;15.73;100.00;101126.09;5034034;28;20233;-75
2021/07/18 02:38:47;;;;;;;13.53;11.23;;;;;;;15.71;100.00;101119.97;5032747;28;20209;-75
2021/07/18 02:41:15;;;;;;;14.97;11.17;;;;;;;15.78;100.00;101115.47;5033742;28;20200;-75
2021/07/18 02:43:41;;;;;;;15.47;11.63;;;;;;;15.83;100.00;101130.19;5033710;28;20217;-76
2021/07/18 02:46:08;;;;;;;14.80;12.50;;;;;;;15.80;100.00;101124.16;5033794;28;20218;-76
2021/07/18 02:48:36;;;;;;;15.10;11.90;;;;;;;15.72;100.00;101116.47;5033908;28;20205;-75
2021/07/18 02:51:03;;;;;;;15.40;12.17;;;;;;;15.72;100.00;101107.69;5033754;28;20280;-75
2021/07/18 02:53:29;;;;;;;13.60;12.40;;;;;;;15.68;100.00;101107.78;5033336;28;20204;-75
2021/07/18 02:55:55;;;;;;;13.67;12.20;;;;;;;15.68;100.00;101102.53;5033394;28;20688;-75
2021/07/18 02:58:22;;;;;;;14.87;12.93;;;;;;;15.66;100.00;101100.84;5033833;28;20210;-75
2021/07/18 03:00:49;;;;;;;14.27;12.87;;;;;;;15.64;100.00;101097.41;5033523;28;20256;-74
2021/07/18 03:03:16;;;;;;;16.37;12.40;;;;;;;15.67;100.00;101097.28;5033310;28;20267;-75
2021/07/18 03:05:43;;;;;;;14.27;12.70;;;;;;;15.66;100.00;101104.34;5033271;28;20216;-75
2021/07/18 03:08:10;;;;;;;14.50;11.87;;;;;;;15.68;100.00;101099.88;5028253;28;20709;-75
2021/07/18 03:10:36;;;;;;;16.10;13.83;;;;;;;15.62;100.00;101100.06;5030157;28;20217;-75
2021/07/18 03:13:03;;;;;;;15.00;13.53;;;;;;;15.59;100.00;101096.66;5033128;28;20205;-76
2021/07/18 03:15:29;;;;;;;16.03;14.30;;;;;;;15.58;100.00;101094.94;5033391;28;20206;-75
2021/07/18 03:17:55;;;;;;;16.57;14.30;;;;;;;15.58;100.00;101079.13;5033296;28;20276;-75
2021/07/18 03:20:22;;;;;;;16.77;15.03;;;;;;;15.58;100.00;101087.91;5033242;28;20208;-76
2021/07/18 03:22:50;;;;;;;16.73;15.13;;;;;;;15.57;100.00;101080.91;5032722;28;20299;-74
2021/07/18 03:25:18;;;;;;;16.20;14.63;;;;;;;15.58;100.00;101085.28;5033060;28;20256;-76
2021/07/18 03:27:45;;;;;;;20.63;13.80;;;;;;;15.58;100.00;101085.28;5033248;28;20229;-76
2021/07/18 03:30:14;;;;;;;17.37;15.37;;;;;;;15.58;100.00;101093.19;5032973;28;20263;-76
2021/07/18 03:32:41;;;;;;;16.67;14.50;;;;;;;15.57;100.00;101091.44;5032602;28;20753;-76
2021/07/18 03:35:09;;;;;;;17.10;14.77;;;;;;;15.59;100.00;101102.78;5032798;28;20725;-75
2021/07/18 03:37:36;;;;;;;15.87;13.60;;;;;;;15.60;100.00;101107.16;5032717;28;20229;-76
2021/07/18 03:40:04;;;;;;;15.87;13.80;;;;;;;15.60;100.00;101107.16;5024356;28;20247;-75
2021/07/18 03:42:30;;;;;;;14.37;12.87;;;;;;;15.62;100.00;101115.00;5032424;28;20220;-75
2021/07/18 03:44:57;;;;;;;17.87;13.10;;;;;;;15.63;100.00;101122.84;5032713;28;20739;-76
2021/07/18 03:47:23;;;;;;;13.30;12.00;;;;;;;15.63;100.00;101127.25;5032640;28;20237;-75
2021/07/18 03:49:49;;;;;;;14.07;12.80;;;;;;;15.62;100.00;101120.28;5032464;28;20210;-76
2021/07/18 03:52:16;;;;;;;13.90;12.50;;;;;;;15.62;100.00;101125.53;5032418;28;20225;-75
2021/07/18 03:54:42;;;;;;;14.60;13.10;;;;;;;15.61;100.00;101129.91;5032377;28;20213;-75
2021/07/18 03:57:10;;;;;;;15.83;12.63;;;;;;;15.58;100.00;101121.25;5032585;28;20286;-75
2021/07/18 03:59:36;;;;;;;14.90;13.30;;;;;;;15.59;100.00;101118.56;5032610;28;20264;-75
2021/07/18 04:02:02;;;;;;;15.73;14.13;;;;;;;15.57;100.00;101122.16;5032140;28;20676;-75
2021/07/18 04:04:29;;;;;;;15.40;13.50;;;;;;;15.61;100.00;101118.53;5032190;28;20206;-75
2021/07/18 04:06:55;;;;;;;16.33;13.73;;;;;;;15.61;100.00;101121.16;5032347;28;20287;-75
2021/07/18 04:09:21;;;;;;;14.90;13.47;;;;;;;15.60;100.00;101122.06;5032072;28;20220;-75
2021/07/18 04:11:48;;;;;;;15.57;13.57;;;;;;;15.64;100.00;101129.84;5032018;28;20282;-75
2021/07/18 04:14:16;;;;;;;14.63;13.33;;;;;;;15.63;100.00;101138.63;5031762;28;20213;-75
2021/07/18 04:16:42;;;;;;;14.80;13.50;;;;;;;15.66;100.00;101130.66;5032302;28;20344;-75
2021/07/18 04:19:09;;;;;;;16.33;13.20;;;;;;;15.69;100.00;101140.22;5032344;28;20202;-76
2021/07/18 04:21:35;;;;;;;18.23;14.60;;;;;;;15.65;100.00;101130.69;5032091;28;20210;-75
2021/07/18 04:24:02;;;;;;;15.37;13.97;;;;;;;15.67;100.00;101135.00;5031565;28;20260;-75
2021/07/18 04:26:28;;;;;;;17.70;14.43;;;;;;;15.69;100.00;101134.97;5031989;28;20280;-75
2021/07/18 04:28:55;;;;;;;16.27;14.57;;;;;;;15.73;100.00;101141.88;5031911;28;20205;-74
2021/07/18 04:31:22;;;;;;;15.40;13.93;;;;;;;15.71;100.00;101145.44;5032048;28;20233;-75
2021/07/18 04:33:50;;;;;;;15.73;13.83;;;;;;;15.76;100.00;101162.03;5031520;28;20749;-73
2021/07/18 04:36:17;;;;;;;14.67;13.23;;;;;;;15.82;100.00;101167.97;5031857;28;20237;-76
2021/07/18 04:38:43;;;;;;;13.90;12.50;;;;;;;15.88;100.00;101178.31;5023835;28;20270;-74
2021/07/18 04:41:09;;;;;;;14.23;12.80;;;;;;;15.91;100.00;101189.66;5031393;28;20260;-76
2021/07/18 04:43:36;;;;;;;14.87;13.07;;;;;;;15.93;100.00;101195.75;5031360;28;20221;-76
2021/07/18 04:46:04;;;;;;;13.77;12.37;;;;;;;15.98;100.00;101199.97;5031757;28;20268;-76
2021/07/18 04:48:32;;;;;;;13.63;12.47;;;;;;;15.95;100.00;101196.56;5031959;28;20283;-76
2021/07/18 04:50:59;;;;;;;14.17;12.37;;;;;;;16.06;100.00;101200.59;5031661;28;20229;-76
2021/07/18 04:53:25;;;;;;;14.33;12.37;;;;;;;16.09;100.00;101218.06;5031400;28;20209;-76
2021/07/18 04:55:51;;;;;;;17.17;12.37;;;;;;;16.07;99.95;101214.63;5031320;28;20216;-75
2021/07/18 04:58:18;;;;;;;14.43;12.93;;;;;;;16.16;99.53;101222.28;5031578;28;20233;-76
2021/07/18 05:00:44;;;;;;;13.70;12.33;;;;;;;16.09;99.46;101231.25;5031767;28;20637;-76
2021/07/18 05:03:10;;;;;;;12.97;11.83;;;;;;;16.16;99.50;101222.28;5036038;28;20244;-75
2021/07/18 05:05:38;;;;;;;13.50;11.90;;;;;;;16.21;99.17;101232.66;5037731;28;20202;-76
2021/07/18 05:08:05;;;;;;;12.80;11.40;;;;;;;16.24;98.71;101249.25;5037946;28;20357;-75
2021/07/18 05:10:31;;;;;;;13.57;12.27;;;;;;;16.24;98.77;101246.59;5029711;28;20214;-76
2021/07/18 05:12:59;;;;;;;13.17;11.97;;;;;;;16.19;98.47;101252.91;5037925;28;20226;-74
2021/07/18 05:15:27;;;;;;;15.47;12.90;;;;;;;16.11;98.48;101253.13;5038174;28;20209;-75
2021/07/18 05:17:55;;;;;;;15.00;12.93;;;;;;;16.16;98.45;101259.16;5038114;28;20229;-76
2021/07/18 05:20:22;;;;;;;14.47;13.00;;;;;;;16.24;98.65;101251.03;5038054;28;20255;-75
2021/07/18 05:22:51;;;;;;;13.83;12.63;;;;;;;16.26;98.33;101271.13;5037598;28;20636;-74
2021/07/18 05:25:17;;;;;;;15.43;12.53;;;;;;;16.33;97.82;101273.59;5037880;28;20205;-75
2021/07/18 05:27:44;;;;;;;13.97;12.40;;;;;;;16.37;97.40;101283.13;5038128;28;20237;-75
2021/07/18 05:30:13;;;;;;;12.30;11.13;;;;;;;16.47;97.24;101281.94;5038159;28;20202;-76
2021/07/18 05:32:39;;;;;;;13.57;12.30;;;;;;;16.63;96.54;101300.78;5037532;28;20272;-75
2021/07/18 05:35:08;;;;;;;11.87;10.97;;;;;;;16.64;95.68;101342.06;5037814;28;20259;-75
2021/07/18 05:37:35;;;;;;;12.40;11.30;;;;;;;16.65;95.54;101359.63;5037915;28;20230;-75
2021/07/18 05:40:03;;;;;;;11.77;10.77;;;;;;;16.74;95.22;101361.13;5029985;28;20259;-74
2021/07/18 05:42:29;;;;;;;12.10;11.03;;;;;;;16.80;94.58;101382.88;5037329;28;20819;-76
2021/07/18 05:44:56;;;;;;;12.17;10.83;;;;;;;16.70;94.07;101399.88;5037909;28;20205;-76
2021/07/18 05:47:22;;;;;;;12.37;10.63;;;;;;;16.69;94.24;101400.81;5038774;28;20233;-76
2021/07/18 05:49:48;;;;;;;11.97;10.63;;;;;;;16.75;94.21;101387.44;5037665;28;20206;-76
2021/07/18 05:52:15;;;;;;;12.17;11.00;;;;;;;16.86;93.81;101403.81;5037345;28;20577;-75
2021/07/18 05:54:41;;;;;;;11.47;10.47;;;;;;;16.81;93.76;101407.50;5037571;28;20206;-76
2021/07/18 05:57:09;;;;;;;12.13;11.00;;;;;;;16.81;93.44;101418.94;5037728;28;20233;-75
2021/07/18 05:59:35;;;;;;;11.53;10.53;;;;;;;16.79;93.01;101426.00;5037526;28;20205;-75
2021/07/18 06:02:01;;;;;;;12.47;11.37;;;;;;;16.83;93.09;101426.81;5037343;28;20264;-75
2021/07/18 06:04:28;;;;;;;13.90;12.70;;;;;;;16.87;93.35;101415.25;5037003;28;20285;-75
2021/07/18 06:06:55;;;;;;;14.33;12.93;;;;;;;16.85;93.33;101415.31;5038645;28;20233;-75
2021/07/18 06:09:21;;;;;;;12.50;11.50;;;;;;;16.90;92.79;101438.91;5033553;28;20265;-76
2021/07/18 06:11:47;;;;;;;12.03;11.03;;;;;;;16.82;92.25;101462.00;5037339;28;20227;-76
2021/07/18 06:14:15;;;;;;;12.63;11.27;;;;;;;16.70;92.74;101447.34;5034076;28;20214;-76
2021/07/18 06:16:41;;;;;;;16.03;11.17;;;;;;;16.75;92.46;101450.72;5034315;28;20241;-75
2021/07/18 06:19:08;;;;;;;12.40;11.23;;;;;;;16.80;92.64;101434.78;5034541;28;20261;-75
2021/07/18 06:21:34;;;;;;;12.27;11.00;;;;;;;16.99;91.99;101456.25;5034248;28;20672;-76
2021/07/18 06:24:00;;;;;;;11.43;9.77;;;;;;;17.05;91.58;101472.75;5033958;28;20210;-75
2021/07/18 06:26:27;;;;;;;10.63;9.50;;;;;;;17.09;90.73;101505.19;5033883;28;20222;-75
2021/07/18 06:28:53;;;;;;;11.43;10.50;;;;;;;17.12;90.24;101514.78;5033784;28;20210;-76
2021/07/18 06:31:21;;;;;;;11.10;10.13;;;;;;;17.13;90.09;101513.88;5034318;28;20208;-75
2021/07/18 06:33:47;;;;;;;10.50;9.43;;;;;;;17.18;89.93;101522.50;5033845;28;20212;-76
2021/07/18 06:36:13;;;;;;;11.70;10.70;;;;;;;17.04;90.26;101510.56;5034081;28;20210;-75
2021/07/18 06:38:40;;;;;;;11.07;10.07;;;;;;;17.03;90.20;101510.63;5025843;28;20268;-75
2021/07/18 06:41:06;;;;;;;17.20;10.50;;;;;;;17.09;90.41;101497.25;5033574;28;20248;-76
2021/07/18 06:43:33;;;;;;;10.20;9.30;;;;;;;17.15;89.69;101518.19;5033321;28;20210;-75
2021/07/18 06:45:59;;;;;;;14.80;11.17;;;;;;;17.33;90.13;101506.22;5033646;28;20681;-75
2021/07/18 06:48:27;;;;;;;12.70;11.10;;;;;;;17.37;89.92;101509.66;5033974;28;20249;-76
2021/07/18 06:50:53;;;;;;;13.97;12.53;;;;;;;17.20;89.97;101510.97;5033875;28;20215;-75
2021/07/18 06:53:19;;;;;;;14.23;12.60;;;;;;;17.14;90.94;101473.38;5033271;28;20632;-74
2021/07/18 06:55:46;;;;;;;12.63;11.43;;;;;;;17.13;90.86;101458.47;5033376;28;20210;-75
2021/07/18 06:58:12;;;;;;;12.57;10.67;;;;;;;17.23;89.98;101505.63;5033178;28;20253;-75
2021/07/18 07:00:39;;;;;;;12.00;10.83;;;;;;;17.36;88.92;101551.00;5033834;28;20210;-75
2021/07/18 07:03:05;;;;;;;11.83;10.73;;;;;;;17.45;88.85;101549.88;5033123;28;20558;-76
2021/07/18 07:05:33;;;;;;;11.77;10.57;;;;;;;17.55;88.45;101564.50;5033003;28;20352;-76
2021/07/18 07:07:59;;;;;;;12.13;10.20;;;;;;;17.46;87.75;101586.78;5033182;28;20767;-75
2021/07/18 07:10:26;;;;;;;11.47;10.23;;;;;;;17.26;88.31;101573.28;5032819;28;20816;-76
2021/07/18 07:12:52;;;;;;;11.70;10.70;;;;;;;17.34;88.53;101557.22;5033104;28;20232;-75
2021/07/18 07:15:18;;;;;;;11.73;10.60;;;;;;;17.56;88.39;101555.69;5033300;28;20264;-75
2021/07/18 07:17:45;;;;;;;9.97;8.90;;;;;;;17.60;87.45;101586.38;5033251;28;20229;-75
2021/07/18 07:20:13;;;;;;;12.07;10.10;;;;;;;17.51;87.33;101584.00;5032938;28;20254;-75
2021/07/18 07:22:41;;;;;;;11.57;10.60;;;;;;;17.63;87.27;101585.41;5032246;28;20665;-75
2021/07/18 07:25:10;;;;;;;10.83;9.93;;;;;;;17.47;87.60;101574.44;5031844;28;20738;-75
2021/07/18 07:27:37;;;;;;;9.43;8.70;;;;;;;17.39;87.19;101581.72;5032667;28;20291;-75
2021/07/18 07:30:05;;;;;;;10.47;9.37;;;;;;;17.26;87.94;101558.34;5032640;28;20202;-75
2021/07/18 07:32:31;;;;;;;10.27;8.90;;;;;;;17.52;88.01;101534.69;5031316;28;20779;-75
2021/07/18 07:34:58;;;;;;;9.83;8.83;;;;;;;17.77;87.38;101558.59;5031673;28;20206;-75
2021/07/18 07:37:25;;;;;;;9.87;8.97;;;;;;;17.85;86.59;101599.72;5031760;28;20218;-75
2021/07/18 07:39:52;;;;;;;8.37;7.57;;;;;;;17.94;85.80;101638.22;5031684;28;20202;-75
2021/07/18 07:42:19;;;;;;;10.33;7.70;;;;;;;18.10;85.69;101632.47;5031362;28;20190;-75
2021/07/18 07:44:46;;;;;;;9.50;8.00;;;;;;;18.17;84.15;101685.06;5031856;28;20199;-75
2021/07/18 07:47:12;;;;;;;8.27;7.57;;;;;;;18.03;85.05;101644.97;5030177;28;20238;-75
2021/07/18 07:49:39;;;;;;;9.20;8.37;;;;;;;18.14;85.31;101628.81;5031424;28;20200;-75
2021/07/18 07:52:06;;;;;;;7.90;7.30;;;;;;;18.30;84.15;101671.47;5031838;28;20272;-75
2021/07/18 07:54:32;;;;;;;7.87;7.17;;;;;;;18.41;83.83;101672.00;5031779;28;20204;-74
2021/07/18 07:57:00;;;;;;;7.87;7.17;;;;;;;18.48;83.28;101705.25;5032056;28;20221;-75
2021/07/18 07:59:26;;;;;;;8.50;7.70;;;;;;;18.40;82.33;101729.28;5031848;28;20615;-75
2021/07/18 08:01:53;;;;;;;7.90;7.10;;;;;;;18.46;82.18;101731.75;5031664;28;20558;-78
2021/07/18 08:04:20;;;;;;;8.10;7.40;;;;;;;18.68;81.87;101728.41;5036345;28;20210;-74
2021/07/18 08:06:46;;;;;;;9.20;8.40;;;;;;;18.83;81.17;101749.13;5032308;28;20218;-76
2021/07/18 08:09:13;;;;;;;8.20;7.40;;;;;;;18.80;81.48;101741.28;5030838;28;20212;-76
2021/07/18 08:11:39;;;;;;;9.07;8.30;;;;;;;18.54;82.50;101697.13;5031192;28;20197;-76
2021/07/18 08:14:07;;;;;;;9.47;8.47;;;;;;;18.46;82.96;101664.78;5036145;28;20199;-76
2021/07/18 08:16:33;;;;;;;10.00;9.00;;;;;;;18.37;84.25;101622.78;5043063;28;20219;-76
2021/07/18 08:19:00;;;;;;;8.23;7.43;;;;;;;18.31;83.34;101652.91;5041940;28;20207;-76
2021/07/18 08:21:26;;;;;;;11.50;10.60;;;;;;;18.47;83.95;101618.91;5043076;28;20609;-76
2021/07/18 08:23:53;;;;;;;7.47;6.87;;;;;;;18.60;82.95;101661.69;5044630;28;20233;-75
2021/07/18 08:26:20;;;;;;;8.50;7.70;;;;;;;18.72;82.17;101700.09;5046861;28;20227;-80
2021/07/18 08:28:47;;;;;;;6.93;6.23;;;;;;;18.83;80.97;101738.56;5046606;28;20228;-78
2021/07/18 08:31:16;;;;;;;6.57;6.07;;;;;;;18.92;81.54;101704.75;5032274;28;20199;-77
2021/07/18 08:33:43;;;;;;;7.00;6.40;;;;;;;18.91;81.04;101722.44;5031790;28;20259;-76
2021/07/18 08:36:10;;;;;;;7.80;6.27;;;;;;;19.06;80.79;101734.25;5032296;28;20271;-77
2021/07/18 08:38:36;;;;;;;6.87;6.07;;;;;;;19.07;79.85;101770.41;5031674;28;20212;-80
2021/07/18 08:41:03;;;;;;;6.53;6.00;;;;;;;18.99;79.27;101794.47;5032507;28;20663;-77
2021/07/18 08:43:29;;;;;;;7.00;6.40;;;;;;;19.15;79.78;101775.47;5032259;28;20744;-78
2021/07/18 08:45:56;;;;;;;5.87;5.27;;;;;;;19.36;79.79;101773.84;5032334;28;20273;-77
2021/07/18 08:48:23;;;;;;;5.80;5.30;;;;;;;19.48;79.16;101785.81;5032867;28;20253;-78
2021/07/18 08:50:50;;;;;;;6.67;5.70;;;;;;;19.65;78.51;101800.19;5032772;28;20203;-78
2021/07/18 08:53:18;;;;;;;6.70;6.20;;;;;;;19.79;78.07;101817.41;5031851;28;20229;-77
2021/07/18 08:55:44;;;;;;;6.70;6.10;;;;;;;19.70;78.59;101802.69;5032330;28;20206;-77
2021/07/18 08:58:15;;;;;;;6.90;6.20;;;;;;;19.65;77.70;101825.81;5032055;28;20779;-77
2021/07/18 09:00:42;;;;;;;5.70;5.20;;;;;;;19.67;78.00;101792.19;5032439;28;20302;-77
2021/07/18 09:03:08;;;;;;;5.50;5.10;;;;;;;19.78;77.50;101826.28;5031860;28;20617;-76
2021/07/18 09:05:36;;;;;;;6.33;5.70;;;;;;;19.84;77.01;101831.34;5032139;28;20220;-78
2021/07/18 09:08:03;;;;;;;6.13;5.47;;;;;;;19.81;77.78;101818.22;5032059;28;20713;-78
2021/07/18 09:10:31;;;;;;;5.93;5.43;;;;;;;19.95;76.96;101834.50;5022828;28;20210;-77
2021/07/18 09:13:06;;;;;;;6.10;5.60;;;;;;;19.93;76.10;101865.50;5024643;28;20225;-77
2021/07/18 09:15:48;;;;;;;5.47;4.97;;;;;;;19.99;77.92;101796.34;5038463;28;20212;-76
2021/07/18 09:18:16;;;;;;;6.33;5.73;;;;;;;20.06;77.15;101812.91;5039075;28;20233;-76
2021/07/18 09:20:46;;;;;;;7.97;5.13;;;;;;;20.11;76.59;101839.25;5040397;28;20198;-76
2021/07/18 09:23:15;;;;;;;6.43;5.80;;;;;;;20.17;76.23;101836.38;5038567;28;20267;-76
2021/07/18 09:25:41;;;;;;;5.57;5.17;;;;;;;20.06;75.93;101842.09;5037971;28;20221;-77
2021/07/18 09:28:13;;;;;;;5.90;5.30;;;;;;;19.86;77.52;101787.16;5041925;28;20294;-77
2021/07/18 09:30:39;;;;;;;6.97;6.27;;;;;;;20.02;77.08;101787.44;5041523;28;20204;-77
2021/07/18 09:33:08;;;;;;;5.60;5.10;;;;;;;20.11;76.95;101792.38;5039488;28;20225;-77
2021/07/18 09:35:35;;;;;;;6.20;5.60;;;;;;;20.22;77.11;101797.31;5040849;28;20207;-77
2021/07/18 09:38:05;;;;;;;6.53;5.90;;;;;;;20.24;76.39;101825.50;5042170;28;20691;-77
2021/07/18 09:40:32;;;;;;;6.00;5.53;;;;;;;20.35;76.38;101811.81;5035012;28;20826;-77
2021/07/18 09:43:00;;;;;;;6.70;6.10;;;;;;;20.36;74.92;101860.44;5038915;28;20198;-77
2021/07/18 09:45:29;;;;;;;6.00;5.60;;;;;;;20.49;76.59;101808.63;5041881;28;20251;-75
2021/07/18 09:48:01;;;;;;;6.27;5.77;;;;;;;20.55;73.99;101884.47;5040512;28;20247;-76
2021/07/18 09:50:34;;;;;;;6.40;6.00;;;;;;;20.62;74.15;101892.19;5044907;28;20254;-76
2021/07/18 09:53:10;;;;;;;5.73;5.33;;;;;;;20.54;74.34;101888.06;5043946;28;20219;-76
2021/07/18 09:55:37;;;;;;;6.47;5.93;;;;;;;20.49;74.15;101887.34;5040893;28;20212;-75
2021/07/18 09:58:04;;;;;;;5.63;5.23;;;;;;;20.65;74.09;101869.09;5041856;28;20272;-76
2021/07/18 10:00:40;;;;;;;5.53;5.03;;;;;;;20.78;73.63;101881.00;5038105;28;20205;-76
2021/07/18 10:03:12;;;;;;;6.13;5.53;;;;;;;20.87;73.28;101901.00;5040638;28;20253;-74
2021/07/18 10:05:38;;;;;;;5.23;4.40;;;;;;;20.95;72.82;101917.47;5024847;28;20252;-76
2021/07/18 10:08:06;;;;;;;5.17;4.77;;;;;;;21.01;72.10;101943.81;5024134;28;20265;-73
2021/07/18 10:10:35;;;;;;;5.07;4.67;;;;;;;21.06;71.59;101949.78;5024416;28;20208;-75
2021/07/18 10:13:02;;;;;;;4.80;4.50;;;;;;;21.11;71.66;101939.88;5029279;28;20219;-76
2021/07/18 10:15:28;;;;;;;4.90;4.50;;;;;;;21.16;70.64;101966.25;5043179;28;20614;-76
2021/07/18 10:17:56;;;;;;;4.93;4.63;;;;;;;21.27;72.67;101894.09;5041629;28;20252;-74
2021/07/18 10:20:23;;;;;;;4.40;4.00;;;;;;;21.10;70.99;101958.50;5042668;28;20291;-76
2021/07/18 10:22:52;;;;;;;4.90;4.40;;;;;;;21.07;69.74;101988.72;5043176;28;20229;-75
2021/07/18 10:25:18;;;;;;;4.07;3.73;;;;;;;21.24;70.17;101969.47;5039086;28;20209;-74
2021/07/18 10:27:47;;;;;;;4.20;3.90;;;;;;;21.33;70.41;101968.25;5042543;28;20231;-75
2021/07/18 10:30:15;;;;;;;4.53;4.13;;;;;;;21.36;69.90;101966.31;5043210;28;20269;-75
2021/07/18 10:32:43;;;;;;;4.93;3.57;;;;;;;21.53;69.61;101973.66;5039938;28;20683;-75
2021/07/18 10:35:12;;;;;;;3.87;3.57;;;;;;;21.72;68.55;101989.69;5043274;28;20199;-76
2021/07/18 10:37:39;;;;;;;3.80;3.40;;;;;;;21.79;68.75;102004.47;5040538;28;20225;-76
2021/07/18 10:40:12;;;;;;;3.87;3.50;;;;;;;21.82;68.94;102000.81;5032884;28;20247;-76
2021/07/18 10:42:39;;;;;;;4.20;3.80;;;;;;;21.83;67.53;102028.28;5033019;28;20205;-75
2021/07/18 10:45:22;;;;;;;3.77;3.47;;;;;;;21.92;68.09;102011.94;5033434;28;20206;-75
2021/07/18 10:48:03;;;;;;;5.83;3.40;;;;;;;21.97;67.68;101999.34;5033243;28;20269;-76
2021/07/18 10:50:48;;;;;;;3.67;3.37;;;;;;;21.81;66.95;102034.53;5033458;28;20679;-76
2021/07/18 10:53:20;;;;;;;3.53;3.20;;;;;;;21.83;67.02;102036.28;5032588;28;20311;-75
2021/07/18 10:55:48;;;;;;;4.00;3.70;;;;;;;21.91;67.63;102000.44;5033026;28;20777;-73
2021/07/18 10:58:46;;;;;;;3.50;3.30;;;;;;;22.04;67.87;101973.34;5032826;28;20727;-76
2021/07/18 11:01:32;;;;;;;3.47;3.17;;;;;;;22.05;66.21;102049.53;5032669;28;20205;-75
2021/07/18 11:03:59;;;;;;;3.63;3.33;;;;;;;22.19;66.74;102042.69;5032887;28;20240;-76
2021/07/18 11:06:28;;;;;;;3.70;3.40;;;;;;;22.16;66.10;102066.78;5032834;28;20230;-76
2021/07/18 11:09:10;;;;;;;3.80;3.50;;;;;;;22.15;66.19;102074.81;5024600;28;20213;-74
2021/07/18 11:11:37;;;;;;;3.73;3.43;;;;;;;22.21;65.03;102088.72;5032343;28;20235;-76
2021/07/18 11:14:23;;;;;;;3.80;3.47;;;;;;;22.47;65.18;102067.31;5032591;28;20228;-75
2021/07/18 11:16:52;;;;;;;3.23;3.03;;;;;;;22.64;63.44;102125.16;5032511;28;20233;-75